sensor_id;sensor_type;location;lat;lon;timestamp;temperature;humidity
19435;DHT22;9853;50.848;4.108;2022-09-27T00:01:24;12.20;99.90
19435;DHT22;9853;50.848;4.108;2022-09-27T00:03:26;12.20;99.90
19435;DHT22;9853;50.848;4.108;2022-09-27T00:05:28;12.30;99.90
19435;DHT22;9853;50.848;4.108;2022-09-27T00:07:28;12.30;99.90
19435;DHT22;9853;50.848;4.108;2022-09-27T00:09:29;12.30;99.90
19435;DHT22;9853;50.848;4.108;2022-09-27T00:11:33;12.20;99.90
19435;DHT22;9853;50.848;4.108;2022-09-27T00:13:34;12.20;99.90
19435;DHT22;9853;50.848;4.108;2022-09-27T00:15:35;12.30;99.90
19435;DHT22;9853;50.848;4.108;2022-09-27T00:17:37;12.30;99.90
19435;DHT22;9853;50.848;4.108;2022-09-27T00:19:38;12.40;99.90
19435;DHT22;9853;50.848;4.108;2022-09-27T00:21:39;12.20;99.90
19435;DHT22;9853;50.848;4.108;2022-09-27T00:23:40;12.10;99.90
19435;DHT22;9853;50.848;4.108;2022-09-27T00:25:41;12.10;99.90
19435;DHT22;9853;50.848;4.108;2022-09-27T00:27:42;12.20;99.90
19435;DHT22;9853;50.848;4.108;2022-09-27T00:29:43;12.20;99.90
19435;DHT22;9853;50.848;4.108;2022-09-27T00:31:45;12.10;99.90
19435;DHT22;9853;50.848;4.108;2022-09-27T00:33:48;12.10;99.90
19435;DHT22;9853;50.848;4.108;2022-09-27T00:35:48;12.00;99.90
19435;DHT22;9853;50.848;4.108;2022-09-27T00:37:49;12.00;99.90
19435;DHT22;9853;50.848;4.108;2022-09-27T00:39:50;11.90;99.90
19435;DHT22;9853;50.848;4.108;2022-09-27T00:41:50;11.80;99.90
19435;DHT22;9853;50.848;4.108;2022-09-27T00:43:54;11.80;99.90
19435;DHT22;9853;50.848;4.108;2022-09-27T00:45:58;11.80;99.90
19435;DHT22;9853;50.848;4.108;2022-09-27T00:48:04;11.80;99.90
19435;DHT22;9853;50.848;4.108;2022-09-27T00:50:25;12.00;99.90
19435;DHT22;9853;50.848;4.108;2022-09-27T00:54:33;12.00;99.90
19435;DHT22;9853;50.848;4.108;2022-09-27T00:56:36;11.90;99.90
19435;DHT22;9853;50.848;4.108;2022-09-27T00:58:42;11.70;99.90
19435;DHT22;9853;50.848;4.108;2022-09-27T01:00:47;11.50;99.90
19435;DHT22;9853;50.848;4.108;2022-09-27T01:02:52;11.60;99.90
19435;DHT22;9853;50.848;4.108;2022-09-27T01:04:54;11.60;99.90
19435;DHT22;9853;50.848;4.108;2022-09-27T01:06:56;11.70;99.90
19435;DHT22;9853;50.848;4.108;2022-09-27T01:08:57;11.70;99.90
19435;DHT22;9853;50.848;4.108;2022-09-27T01:11:16;11.90;99.90
19435;DHT22;9853;50.848;4.108;2022-09-27T01:13:31;11.90;99.90
19435;DHT22;9853;50.848;4.108;2022-09-27T01:16:47;11.70;99.90
19435;DHT22;9853;50.848;4.108;2022-09-27T01:29:41;11.60;99.90
19435;DHT22;9853;50.848;4.108;2022-09-27T01:31:55;11.60;99.90
19435;DHT22;9853;50.848;4.108;2022-09-27T01:34:21;11.50;99.90
19435;DHT22;9853;50.848;4.108;2022-09-27T01:36:34;11.60;99.90
19435;DHT22;9853;50.848;4.108;2022-09-27T01:41:20;11.70;99.90
19435;DHT22;9853;50.848;4.108;2022-09-27T01:44:25;11.60;99.90
19435;DHT22;9853;50.848;4.108;2022-09-27T01:46:44;11.70;99.90
19435;DHT22;9853;50.848;4.108;2022-09-27T01:49:11;11.80;99.90
19435;DHT22;9853;50.848;4.108;2022-09-27T01:51:30;11.70;99.90
19435;DHT22;9853;50.848;4.108;2022-09-27T01:53:40;11.70;99.90
19435;DHT22;9853;50.848;4.108;2022-09-27T01:56:23;11.70;99.90
19435;DHT22;9853;50.848;4.108;2022-09-27T01:58:55;11.60;99.90
19435;DHT22;9853;50.848;4.108;2022-09-27T02:00:58;11.80;99.90
19435;DHT22;9853;50.848;4.108;2022-09-27T02:03:10;11.90;99.90
19435;DHT22;9853;50.848;4.108;2022-09-27T02:05:14;11.80;99.90
19435;DHT22;9853;50.848;4.108;2022-09-27T02:07:38;11.80;99.90
19435;DHT22;9853;50.848;4.108;2022-09-27T02:10:10;11.80;99.90
19435;DHT22;9853;50.848;4.108;2022-09-27T02:12:33;11.80;99.90
19435;DHT22;9853;50.848;4.108;2022-09-27T02:14:57;11.70;99.90
19435;DHT22;9853;50.848;4.108;2022-09-27T02:17:33;11.80;99.90
19435;DHT22;9853;50.848;4.108;2022-09-27T02:20:04;11.80;99.90
19435;DHT22;9853;50.848;4.108;2022-09-27T02:22:46;11.80;99.90
19435;DHT22;9853;50.848;4.108;2022-09-27T02:25:13;11.80;99.90
19435;DHT22;9853;50.848;4.108;2022-09-27T02:27:22;11.80;99.90
19435;DHT22;9853;50.848;4.108;2022-09-27T02:29:35;11.70;99.90
19435;DHT22;9853;50.848;4.108;2022-09-27T02:31:39;11.60;99.90
19435;DHT22;9853;50.848;4.108;2022-09-27T02:33:47;11.50;99.90
19435;DHT22;9853;50.848;4.108;2022-09-27T02:35:49;11.50;99.90
19435;DHT22;9853;50.848;4.108;2022-09-27T02:37:50;11.50;99.90
19435;DHT22;9853;50.848;4.108;2022-09-27T02:39:51;11.40;99.90
19435;DHT22;9853;50.848;4.108;2022-09-27T02:41:52;11.30;99.90
19435;DHT22;9853;50.848;4.108;2022-09-27T02:44:02;11.40;99.90
19435;DHT22;9853;50.848;4.108;2022-09-27T02:53:43;11.50;99.90
19435;DHT22;9853;50.848;4.108;2022-09-27T02:56:08;11.50;99.90
19435;DHT22;9853;50.848;4.108;2022-09-27T03:01:26;11.40;99.90
19435;DHT22;9853;50.848;4.108;2022-09-27T03:06:09;11.50;99.90
19435;DHT22;9853;50.848;4.108;2022-09-27T03:08:11;11.60;99.90
19435;DHT22;9853;50.848;4.108;2022-09-27T03:10:18;11.60;99.90
19435;DHT22;9853;50.848;4.108;2022-09-27T03:12:19;11.60;99.90
19435;DHT22;9853;50.848;4.108;2022-09-27T03:14:26;11.60;99.90
19435;DHT22;9853;50.848;4.108;2022-09-27T03:16:38;11.50;99.90
19435;DHT22;9853;50.848;4.108;2022-09-27T03:18:59;11.70;99.90
19435;DHT22;9853;50.848;4.108;2022-09-27T03:21:34;11.80;99.90
19435;DHT22;9853;50.848;4.108;2022-09-27T03:23:35;11.60;99.90
19435;DHT22;9853;50.848;4.108;2022-09-27T03:25:36;11.70;99.90
19435;DHT22;9853;50.848;4.108;2022-09-27T03:27:43;11.80;99.90
19435;DHT22;9853;50.848;4.108;2022-09-27T03:29:44;11.70;99.90
19435;DHT22;9853;50.848;4.108;2022-09-27T03:31:45;11.70;99.90
19435;DHT22;9853;50.848;4.108;2022-09-27T03:34:00;11.60;99.90
19435;DHT22;9853;50.848;4.108;2022-09-27T03:36:01;11.60;99.90
19435;DHT22;9853;50.848;4.108;2022-09-27T03:38:03;11.60;99.90
19435;DHT22;9853;50.848;4.108;2022-09-27T03:40:04;11.50;99.90
19435;DHT22;9853;50.848;4.108;2022-09-27T03:42:05;11.50;99.90
19435;DHT22;9853;50.848;4.108;2022-09-27T03:44:07;11.60;99.90
19435;DHT22;9853;50.848;4.108;2022-09-27T03:46:07;11.50;99.90
19435;DHT22;9853;50.848;4.108;2022-09-27T03:48:08;11.40;99.90
19435;DHT22;9853;50.848;4.108;2022-09-27T03:50:10;11.40;99.90
19435;DHT22;9853;50.848;4.108;2022-09-27T03:52:11;11.40;99.90
19435;DHT22;9853;50.848;4.108;2022-09-27T03:54:12;11.40;99.90
19435;DHT22;9853;50.848;4.108;2022-09-27T03:56:13;11.30;99.90
19435;DHT22;9853;50.848;4.108;2022-09-27T03:58:14;11.40;99.90
19435;DHT22;9853;50.848;4.108;2022-09-27T04:00:14;11.30;99.90
19435;DHT22;9853;50.848;4.108;2022-09-27T04:02:15;11.20;99.90
19435;DHT22;9853;50.848;4.108;2022-09-27T04:04:34;11.10;99.90
19435;DHT22;9853;50.848;4.108;2022-09-27T04:06:35;11.20;99.90
19435;DHT22;9853;50.848;4.108;2022-09-27T04:08:37;11.30;99.90
19435;DHT22;9853;50.848;4.108;2022-09-27T04:10:40;11.30;99.90
19435;DHT22;9853;50.848;4.108;2022-09-27T04:12:42;11.20;99.90
19435;DHT22;9853;50.848;4.108;2022-09-27T04:14:43;11.10;99.90
19435;DHT22;9853;50.848;4.108;2022-09-27T04:17:21;11.20;99.90
19435;DHT22;9853;50.848;4.108;2022-09-27T04:19:51;11.10;99.90
19435;DHT22;9853;50.848;4.108;2022-09-27T04:21:52;11.20;99.90
19435;DHT22;9853;50.848;4.108;2022-09-27T04:23:53;11.20;99.90
19435;DHT22;9853;50.848;4.108;2022-09-27T04:25:56;11.10;99.90
19435;DHT22;9853;50.848;4.108;2022-09-27T04:28:23;11.10;99.90
19435;DHT22;9853;50.848;4.108;2022-09-27T04:30:24;11.20;99.90
19435;DHT22;9853;50.848;4.108;2022-09-27T04:32:44;11.10;99.90
19435;DHT22;9853;50.848;4.108;2022-09-27T04:35:08;11.00;99.90
19435;DHT22;9853;50.848;4.108;2022-09-27T04:37:28;10.90;99.90
19435;DHT22;9853;50.848;4.108;2022-09-27T04:39:34;11.00;99.90
19435;DHT22;9853;50.848;4.108;2022-09-27T04:41:36;11.10;99.90
19435;DHT22;9853;50.848;4.108;2022-09-27T04:43:37;11.00;99.90
19435;DHT22;9853;50.848;4.108;2022-09-27T04:45:38;11.00;99.90
19435;DHT22;9853;50.848;4.108;2022-09-27T04:47:45;11.00;99.90
19435;DHT22;9853;50.848;4.108;2022-09-27T04:49:47;10.90;99.90
19435;DHT22;9853;50.848;4.108;2022-09-27T04:51:48;10.90;99.90
19435;DHT22;9853;50.848;4.108;2022-09-27T04:53:48;11.00;99.90
19435;DHT22;9853;50.848;4.108;2022-09-27T04:55:51;10.90;99.90
19435;DHT22;9853;50.848;4.108;2022-09-27T04:57:52;10.70;99.90
19435;DHT22;9853;50.848;4.108;2022-09-27T04:59:53;10.80;99.90
19435;DHT22;9853;50.848;4.108;2022-09-27T05:01:54;10.80;99.90
19435;DHT22;9853;50.848;4.108;2022-09-27T05:04:27;10.80;99.90
19435;DHT22;9853;50.848;4.108;2022-09-27T05:06:28;10.80;99.90
19435;DHT22;9853;50.848;4.108;2022-09-27T05:08:34;10.80;99.90
19435;DHT22;9853;50.848;4.108;2022-09-27T05:11:07;10.80;99.90
19435;DHT22;9853;50.848;4.108;2022-09-27T05:13:07;10.80;99.90
19435;DHT22;9853;50.848;4.108;2022-09-27T05:15:09;10.80;99.90
19435;DHT22;9853;50.848;4.108;2022-09-27T05:17:13;10.90;99.90
19435;DHT22;9853;50.848;4.108;2022-09-27T05:19:49;10.90;99.90
19435;DHT22;9853;50.848;4.108;2022-09-27T05:21:54;10.80;99.90
19435;DHT22;9853;50.848;4.108;2022-09-27T05:23:55;10.80;99.90
19435;DHT22;9853;50.848;4.108;2022-09-27T05:25:56;10.90;99.90
19435;DHT22;9853;50.848;4.108;2022-09-27T05:27:57;11.00;99.90
19435;DHT22;9853;50.848;4.108;2022-09-27T05:29:59;11.00;99.90
19435;DHT22;9853;50.848;4.108;2022-09-27T05:32:09;11.00;99.90
19435;DHT22;9853;50.848;4.108;2022-09-27T05:34:10;10.90;99.90
19435;DHT22;9853;50.848;4.108;2022-09-27T05:36:15;10.90;99.90
19435;DHT22;9853;50.848;4.108;2022-09-27T05:38:16;10.90;99.90
19435;DHT22;9853;50.848;4.108;2022-09-27T05:40:22;10.90;99.90
19435;DHT22;9853;50.848;4.108;2022-09-27T05:42:24;11.00;99.90
19435;DHT22;9853;50.848;4.108;2022-09-27T05:44:25;11.00;99.90
19435;DHT22;9853;50.848;4.108;2022-09-27T05:46:32;11.00;99.90
19435;DHT22;9853;50.848;4.108;2022-09-27T05:48:33;11.00;99.90
19435;DHT22;9853;50.848;4.108;2022-09-27T05:50:37;11.00;99.90
19435;DHT22;9853;50.848;4.108;2022-09-27T05:52:38;10.90;99.90
19435;DHT22;9853;50.848;4.108;2022-09-27T05:54:40;11.00;99.90
19435;DHT22;9853;50.848;4.108;2022-09-27T05:56:40;11.00;99.90
19435;DHT22;9853;50.848;4.108;2022-09-27T05:58:56;11.00;99.90
19435;DHT22;9853;50.848;4.108;2022-09-27T06:00:59;10.90;99.90
19435;DHT22;9853;50.848;4.108;2022-09-27T06:03:21;10.90;99.90
19435;DHT22;9853;50.848;4.108;2022-09-27T06:06:01;10.90;99.90
19435;DHT22;9853;50.848;4.108;2022-09-27T06:08:13;10.90;99.90
19435;DHT22;9853;50.848;4.108;2022-09-27T06:10:20;10.90;99.90
19435;DHT22;9853;50.848;4.108;2022-09-27T06:12:21;10.90;99.90
19435;DHT22;9853;50.848;4.108;2022-09-27T06:14:22;10.70;99.90
19435;DHT22;9853;50.848;4.108;2022-09-27T06:16:32;10.70;99.90
19435;DHT22;9853;50.848;4.108;2022-09-27T06:18:34;10.60;99.90
19435;DHT22;9853;50.848;4.108;2022-09-27T06:20:36;10.60;99.90
19435;DHT22;9853;50.848;4.108;2022-09-27T06:22:37;10.60;99.90
19435;DHT22;9853;50.848;4.108;2022-09-27T06:24:38;10.70;99.90
19435;DHT22;9853;50.848;4.108;2022-09-27T06:26:47;10.70;99.90
19435;DHT22;9853;50.848;4.108;2022-09-27T06:28:56;10.70;99.90
19435;DHT22;9853;50.848;4.108;2022-09-27T06:30:57;10.80;99.90
19435;DHT22;9853;50.848;4.108;2022-09-27T06:33:20;10.80;99.90
19435;DHT22;9853;50.848;4.108;2022-09-27T06:35:27;10.90;99.90
19435;DHT22;9853;50.848;4.108;2022-09-27T06:37:27;10.80;99.90
19435;DHT22;9853;50.848;4.108;2022-09-27T06:39:29;10.80;99.90
19435;DHT22;9853;50.848;4.108;2022-09-27T06:41:55;10.90;99.90
19435;DHT22;9853;50.848;4.108;2022-09-27T06:44:19;11.20;99.90
19435;DHT22;9853;50.848;4.108;2022-09-27T06:46:38;11.40;99.90
19435;DHT22;9853;50.848;4.108;2022-09-27T06:48:45;11.20;99.90
19435;DHT22;9853;50.848;4.108;2022-09-27T06:50:51;11.30;99.90
19435;DHT22;9853;50.848;4.108;2022-09-27T06:52:54;11.10;99.90
19435;DHT22;9853;50.848;4.108;2022-09-27T06:54:54;11.10;99.90
19435;DHT22;9853;50.848;4.108;2022-09-27T06:56:55;11.10;99.90
19435;DHT22;9853;50.848;4.108;2022-09-27T06:58:57;11.10;99.90
19435;DHT22;9853;50.848;4.108;2022-09-27T07:01:16;11.20;99.90
19435;DHT22;9853;50.848;4.108;2022-09-27T07:03:36;11.30;99.90
19435;DHT22;9853;50.848;4.108;2022-09-27T07:05:59;11.50;99.90
19435;DHT22;9853;50.848;4.108;2022-09-27T07:08:13;11.50;99.90
19435;DHT22;9853;50.848;4.108;2022-09-27T07:10:15;11.60;99.90
19435;DHT22;9853;50.848;4.108;2022-09-27T07:12:17;11.80;99.90
19435;DHT22;9853;50.848;4.108;2022-09-27T07:14:18;11.80;99.90
19435;DHT22;9853;50.848;4.108;2022-09-27T07:16:19;11.60;99.90
19435;DHT22;9853;50.848;4.108;2022-09-27T07:18:19;11.60;99.90
19435;DHT22;9853;50.848;4.108;2022-09-27T07:20:21;11.70;99.90
19435;DHT22;9853;50.848;4.108;2022-09-27T07:22:22;11.70;99.90
19435;DHT22;9853;50.848;4.108;2022-09-27T07:24:28;11.70;99.90
19435;DHT22;9853;50.848;4.108;2022-09-27T07:26:29;11.70;99.90
19435;DHT22;9853;50.848;4.108;2022-09-27T07:28:30;11.60;99.90
19435;DHT22;9853;50.848;4.108;2022-09-27T07:30:33;11.50;99.90
19435;DHT22;9853;50.848;4.108;2022-09-27T07:32:35;11.50;99.90
19435;DHT22;9853;50.848;4.108;2022-09-27T07:34:37;11.50;99.90
19435;DHT22;9853;50.848;4.108;2022-09-27T07:36:37;11.40;99.90
19435;DHT22;9853;50.848;4.108;2022-09-27T07:38:38;11.20;99.90
19435;DHT22;9853;50.848;4.108;2022-09-27T07:40:39;11.10;99.90
19435;DHT22;9853;50.848;4.108;2022-09-27T07:42:40;11.30;99.90
19435;DHT22;9853;50.848;4.108;2022-09-27T07:44:41;11.40;99.90
19435;DHT22;9853;50.848;4.108;2022-09-27T07:47:01;11.50;99.90
19435;DHT22;9853;50.848;4.108;2022-09-27T07:49:24;11.70;99.90
19435;DHT22;9853;50.848;4.108;2022-09-27T07:51:43;11.70;99.90
19435;DHT22;9853;50.848;4.108;2022-09-27T07:54:00;11.90;99.90
19435;DHT22;9853;50.848;4.108;2022-09-27T07:56:27;11.80;99.90
19435;DHT22;9853;50.848;4.108;2022-09-27T07:58:28;12.00;99.90
19435;DHT22;9853;50.848;4.108;2022-09-27T08:00:34;12.00;99.90
19435;DHT22;9853;50.848;4.108;2022-09-27T08:02:36;11.90;99.90
19435;DHT22;9853;50.848;4.108;2022-09-27T08:04:37;11.90;99.90
19435;DHT22;9853;50.848;4.108;2022-09-27T08:06:38;12.00;99.90
19435;DHT22;9853;50.848;4.108;2022-09-27T08:08:38;12.20;99.90
19435;DHT22;9853;50.848;4.108;2022-09-27T08:10:40;12.00;99.90
19435;DHT22;9853;50.848;4.108;2022-09-27T08:12:44;11.90;99.90
19435;DHT22;9853;50.848;4.108;2022-09-27T08:14:46;11.90;99.90
19435;DHT22;9853;50.848;4.108;2022-09-27T08:16:46;12.10;99.90
19435;DHT22;9853;50.848;4.108;2022-09-27T08:19:04;12.10;99.90
19435;DHT22;9853;50.848;4.108;2022-09-27T08:21:22;12.10;99.90
19435;DHT22;9853;50.848;4.108;2022-09-27T08:23:44;12.00;99.90
19435;DHT22;9853;50.848;4.108;2022-09-27T08:25:57;11.90;99.90
19435;DHT22;9853;50.848;4.108;2022-09-27T08:28:02;11.90;99.90
19435;DHT22;9853;50.848;4.108;2022-09-27T08:30:20;12.00;99.90
19435;DHT22;9853;50.848;4.108;2022-09-27T08:32:20;12.20;99.90
19435;DHT22;9853;50.848;4.108;2022-09-27T08:34:22;12.10;99.90
19435;DHT22;9853;50.848;4.108;2022-09-27T08:36:23;12.20;99.90
19435;DHT22;9853;50.848;4.108;2022-09-27T08:38:24;11.80;99.90
19435;DHT22;9853;50.848;4.108;2022-09-27T08:40:49;12.00;99.90
19435;DHT22;9853;50.848;4.108;2022-09-27T08:45:21;11.90;99.90
19435;DHT22;9853;50.848;4.108;2022-09-27T08:47:45;12.00;99.90
19435;DHT22;9853;50.848;4.108;2022-09-27T08:49:57;11.90;99.90
19435;DHT22;9853;50.848;4.108;2022-09-27T08:52:05;12.00;99.90
19435;DHT22;9853;50.848;4.108;2022-09-27T08:54:15;12.00;99.90
19435;DHT22;9853;50.848;4.108;2022-09-27T08:56:19;11.90;99.90
19435;DHT22;9853;50.848;4.108;2022-09-27T08:58:26;12.00;99.90
19435;DHT22;9853;50.848;4.108;2022-09-27T09:00:28;12.00;99.90
19435;DHT22;9853;50.848;4.108;2022-09-27T09:02:30;12.00;99.90
19435;DHT22;9853;50.848;4.108;2022-09-27T09:04:37;12.00;99.90
19435;DHT22;9853;50.848;4.108;2022-09-27T09:06:48;11.80;99.90
19435;DHT22;9853;50.848;4.108;2022-09-27T09:14:21;12.00;99.90
19435;DHT22;9853;50.848;4.108;2022-09-27T09:26:22;13.30;99.90
19435;DHT22;9853;50.848;4.108;2022-09-27T09:33:13;14.80;99.90
19435;DHT22;9853;50.848;4.108;2022-09-27T09:35:22;14.50;99.90
19435;DHT22;9853;50.848;4.108;2022-09-27T09:37:45;14.70;99.90
19435;DHT22;9853;50.848;4.108;2022-09-27T09:39:51;15.10;99.90
19435;DHT22;9853;50.848;4.108;2022-09-27T09:42:04;15.00;99.90
19435;DHT22;9853;50.848;4.108;2022-09-27T09:44:25;14.90;99.90
19435;DHT22;9853;50.848;4.108;2022-09-27T09:46:39;15.00;99.90
19435;DHT22;9853;50.848;4.108;2022-09-27T09:50:51;15.30;99.90
19435;DHT22;9853;50.848;4.108;2022-09-27T09:53:01;15.20;99.90
19435;DHT22;9853;50.848;4.108;2022-09-27T09:55:19;15.30;99.90
19435;DHT22;9853;50.848;4.108;2022-09-27T09:57:27;15.30;99.90
19435;DHT22;9853;50.848;4.108;2022-09-27T09:59:39;15.50;99.90
19435;DHT22;9853;50.848;4.108;2022-09-27T10:01:45;15.40;99.90
19435;DHT22;9853;50.848;4.108;2022-09-27T10:03:46;15.40;99.90
19435;DHT22;9853;50.848;4.108;2022-09-27T10:05:48;15.00;99.90
19435;DHT22;9853;50.848;4.108;2022-09-27T10:07:51;15.40;99.90
19435;DHT22;9853;50.848;4.108;2022-09-27T10:09:56;15.30;99.90
19435;DHT22;9853;50.848;4.108;2022-09-27T10:12:21;15.50;99.90
19435;DHT22;9853;50.848;4.108;2022-09-27T10:14:25;15.40;99.90
19435;DHT22;9853;50.848;4.108;2022-09-27T10:16:28;15.20;99.90
19435;DHT22;9853;50.848;4.108;2022-09-27T10:18:29;14.80;99.90
19435;DHT22;9853;50.848;4.108;2022-09-27T10:20:38;15.00;99.90
19435;DHT22;9853;50.848;4.108;2022-09-27T10:22:45;15.30;99.90
19435;DHT22;9853;50.848;4.108;2022-09-27T10:25:08;15.40;99.90
19435;DHT22;9853;50.848;4.108;2022-09-27T10:27:25;15.50;99.90
19435;DHT22;9853;50.848;4.108;2022-09-27T10:29:34;15.30;99.90
19435;DHT22;9853;50.848;4.108;2022-09-27T10:31:37;15.20;99.90
19435;DHT22;9853;50.848;4.108;2022-09-27T10:33:56;15.20;99.90
19435;DHT22;9853;50.848;4.108;2022-09-27T10:36:00;15.60;99.90
19435;DHT22;9853;50.848;4.108;2022-09-27T10:40:27;15.20;99.90
19435;DHT22;9853;50.848;4.108;2022-09-27T10:42:35;15.10;99.90
19435;DHT22;9853;50.848;4.108;2022-09-27T10:44:36;15.10;99.90
19435;DHT22;9853;50.848;4.108;2022-09-27T10:47:08;15.20;99.90
19435;DHT22;9853;50.848;4.108;2022-09-27T10:49:25;15.10;99.90
19435;DHT22;9853;50.848;4.108;2022-09-27T10:51:29;14.80;99.90
19435;DHT22;9853;50.848;4.108;2022-09-27T10:53:34;14.10;99.90
19435;DHT22;9853;50.848;4.108;2022-09-27T10:55:42;14.00;99.90
19435;DHT22;9853;50.848;4.108;2022-09-27T10:57:52;13.70;99.90
19435;DHT22;9853;50.848;4.108;2022-09-27T10:59:57;13.70;99.90
19435;DHT22;9853;50.848;4.108;2022-09-27T11:01:58;13.70;99.90
19435;DHT22;9853;50.848;4.108;2022-09-27T11:04:33;13.50;99.90
19435;DHT22;9853;50.848;4.108;2022-09-27T11:06:34;13.30;99.90
19435;DHT22;9853;50.848;4.108;2022-09-27T11:08:38;13.20;99.90
19435;DHT22;9853;50.848;4.108;2022-09-27T11:13:18;13.50;99.90
19435;DHT22;9853;50.848;4.108;2022-09-27T11:15:22;13.90;99.90
19435;DHT22;9853;50.848;4.108;2022-09-27T11:17:48;14.20;99.90
19435;DHT22;9853;50.848;4.108;2022-09-27T11:22:24;14.10;99.90
19435;DHT22;9853;50.848;4.108;2022-09-27T11:27:06;14.50;99.90
19435;DHT22;9853;50.848;4.108;2022-09-27T11:29:59;14.40;99.90
19435;DHT22;9853;50.848;4.108;2022-09-27T11:32:39;14.10;99.90
19435;DHT22;9853;50.848;4.108;2022-09-27T11:35:04;13.70;99.90
19435;DHT22;9853;50.848;4.108;2022-09-27T11:38:05;13.40;99.90
19435;DHT22;9853;50.848;4.108;2022-09-27T11:44:57;13.10;99.90
19435;DHT22;9853;50.848;4.108;2022-09-27T11:56:56;13.40;99.90
19435;DHT22;9853;50.848;4.108;2022-09-27T12:01:32;14.10;99.90
19435;DHT22;9853;50.848;4.108;2022-09-27T12:06:16;14.50;99.90
19435;DHT22;9853;50.848;4.108;2022-09-27T12:08:40;14.70;99.90
19435;DHT22;9853;50.848;4.108;2022-09-27T12:10:48;14.80;99.90
19435;DHT22;9853;50.848;4.108;2022-09-27T12:12:53;14.90;99.90
19435;DHT22;9853;50.848;4.108;2022-09-27T12:14:59;15.00;99.90
19435;DHT22;9853;50.848;4.108;2022-09-27T12:17:04;15.10;99.90
19435;DHT22;9853;50.848;4.108;2022-09-27T12:19:13;15.10;99.90
19435;DHT22;9853;50.848;4.108;2022-09-27T12:21:26;15.20;99.90
19435;DHT22;9853;50.848;4.108;2022-09-27T12:23:39;15.10;99.90
19435;DHT22;9853;50.848;4.108;2022-09-27T12:30:47;15.00;99.90
19435;DHT22;9853;50.848;4.108;2022-09-27T12:32:56;15.10;99.90
19435;DHT22;9853;50.848;4.108;2022-09-27T12:35:02;14.80;99.90
19435;DHT22;9853;50.848;4.108;2022-09-27T12:41:35;13.30;99.90
19435;DHT22;9853;50.848;4.108;2022-09-27T12:43:51;13.00;99.90
19435;DHT22;9853;50.848;4.108;2022-09-27T12:50:52;13.30;99.90
19435;DHT22;9853;50.848;4.108;2022-09-27T12:53:07;13.80;99.90
19435;DHT22;9853;50.848;4.108;2022-09-27T12:57:42;14.10;99.90
19435;DHT22;9853;50.848;4.108;2022-09-27T13:11:44;14.60;99.90
19435;DHT22;9853;50.848;4.108;2022-09-27T13:13:53;14.50;99.90
19435;DHT22;9853;50.848;4.108;2022-09-27T13:15:58;14.60;99.90
19435;DHT22;9853;50.848;4.108;2022-09-27T13:18:03;14.60;99.90
19435;DHT22;9853;50.848;4.108;2022-09-27T13:22:37;14.90;99.90
19435;DHT22;9853;50.848;4.108;2022-09-27T13:24:54;15.10;99.90
19435;DHT22;9853;50.848;4.108;2022-09-27T13:29:28;15.30;99.90
19435;DHT22;9853;50.848;4.108;2022-09-27T13:32:15;15.50;99.90
19435;DHT22;9853;50.848;4.108;2022-09-27T13:34:51;15.40;99.90
19435;DHT22;9853;50.848;4.108;2022-09-27T13:39:25;15.50;99.90
19435;DHT22;9853;50.848;4.108;2022-09-27T13:46:14;15.60;99.90
19435;DHT22;9853;50.848;4.108;2022-09-27T13:48:28;15.90;99.90
19435;DHT22;9853;50.848;4.108;2022-09-27T13:50:36;16.10;99.90
19435;DHT22;9853;50.848;4.108;2022-09-27T13:52:54;15.80;99.90
19435;DHT22;9853;50.848;4.108;2022-09-27T13:55:45;15.90;99.90
19435;DHT22;9853;50.848;4.108;2022-09-27T13:57:58;16.00;99.90
19435;DHT22;9853;50.848;4.108;2022-09-27T14:00:04;16.30;99.90
19435;DHT22;9853;50.848;4.108;2022-09-27T14:02:27;16.30;99.90
19435;DHT22;9853;50.848;4.108;2022-09-27T14:04:50;16.30;99.90
19435;DHT22;9853;50.848;4.108;2022-09-27T14:06:54;16.30;99.90
19435;DHT22;9853;50.848;4.108;2022-09-27T14:08:59;16.30;99.90
19435;DHT22;9853;50.848;4.108;2022-09-27T14:11:08;16.50;99.90
19435;DHT22;9853;50.848;4.108;2022-09-27T14:13:17;16.10;99.90
19435;DHT22;9853;50.848;4.108;2022-09-27T14:15:28;16.20;99.90
19435;DHT22;9853;50.848;4.108;2022-09-27T14:17:31;16.20;99.90
19435;DHT22;9853;50.848;4.108;2022-09-27T14:19:38;16.10;99.90
19435;DHT22;9853;50.848;4.108;2022-09-27T14:21:41;16.10;99.90
19435;DHT22;9853;50.848;4.108;2022-09-27T14:26:26;16.20;99.90
19435;DHT22;9853;50.848;4.108;2022-09-27T14:28:29;16.30;99.90
19435;DHT22;9853;50.848;4.108;2022-09-27T14:30:39;15.90;99.90
19435;DHT22;9853;50.848;4.108;2022-09-27T14:32:53;15.70;99.90
19435;DHT22;9853;50.848;4.108;2022-09-27T14:35:13;15.50;99.90
19435;DHT22;9853;50.848;4.108;2022-09-27T14:37:33;14.60;99.90
19435;DHT22;9853;50.848;4.108;2022-09-27T14:39:41;14.50;99.90
19435;DHT22;9853;50.848;4.108;2022-09-27T14:42:15;14.10;99.90
19435;DHT22;9853;50.848;4.108;2022-09-27T14:44:20;14.20;99.90
19435;DHT22;9853;50.848;4.108;2022-09-27T14:46:29;14.10;99.90
19435;DHT22;9853;50.848;4.108;2022-09-27T14:48:33;14.20;99.90
19435;DHT22;9853;50.848;4.108;2022-09-27T14:50:34;14.20;99.90
19435;DHT22;9853;50.848;4.108;2022-09-27T14:52:38;14.40;99.90
19435;DHT22;9853;50.848;4.108;2022-09-27T14:54:38;14.50;99.90
19435;DHT22;9853;50.848;4.108;2022-09-27T14:56:39;14.30;99.90
19435;DHT22;9853;50.848;4.108;2022-09-27T14:58:41;14.50;99.90
19435;DHT22;9853;50.848;4.108;2022-09-27T15:00:47;14.60;99.90
19435;DHT22;9853;50.848;4.108;2022-09-27T15:02:50;14.60;99.90
19435;DHT22;9853;50.848;4.108;2022-09-27T15:04:54;14.70;99.90
19435;DHT22;9853;50.848;4.108;2022-09-27T15:06:55;14.80;99.90
19435;DHT22;9853;50.848;4.108;2022-09-27T15:08:57;14.90;99.90
19435;DHT22;9853;50.848;4.108;2022-09-27T15:11:00;15.20;99.90
19435;DHT22;9853;50.848;4.108;2022-09-27T15:13:05;15.40;99.90
19435;DHT22;9853;50.848;4.108;2022-09-27T15:15:11;15.30;99.90
19435;DHT22;9853;50.848;4.108;2022-09-27T15:17:18;15.40;99.90
19435;DHT22;9853;50.848;4.108;2022-09-27T15:19:55;15.30;99.90
19435;DHT22;9853;50.848;4.108;2022-09-27T15:22:41;15.40;99.90
19435;DHT22;9853;50.848;4.108;2022-09-27T15:24:46;15.50;99.90
19435;DHT22;9853;50.848;4.108;2022-09-27T15:26:48;15.30;99.90
19435;DHT22;9853;50.848;4.108;2022-09-27T15:28:57;15.40;99.90
19435;DHT22;9853;50.848;4.108;2022-09-27T15:31:27;15.50;99.90
19435;DHT22;9853;50.848;4.108;2022-09-27T15:33:30;15.50;99.90
19435;DHT22;9853;50.848;4.108;2022-09-27T15:35:34;15.60;99.90
19435;DHT22;9853;50.848;4.108;2022-09-27T15:37:37;15.60;99.90
19435;DHT22;9853;50.848;4.108;2022-09-27T15:39:39;15.80;99.90
19435;DHT22;9853;50.848;4.108;2022-09-27T15:43:59;15.40;99.90
19435;DHT22;9853;50.848;4.108;2022-09-27T15:46:23;15.50;99.90
19435;DHT22;9853;50.848;4.108;2022-09-27T15:48:24;15.60;99.90
19435;DHT22;9853;50.848;4.108;2022-09-27T15:52:58;15.50;99.90
19435;DHT22;9853;50.848;4.108;2022-09-27T15:54:59;15.60;99.90
19435;DHT22;9853;50.848;4.108;2022-09-27T15:57:03;15.60;99.90
19435;DHT22;9853;50.848;4.108;2022-09-27T15:59:04;15.70;99.90
19435;DHT22;9853;50.848;4.108;2022-09-27T16:01:06;15.60;99.90